Terminal Aerodrome Forecast
Issued by NWS Sterling, VA

Current Version | Previous Version | Text Only | Print | Product List | Glossary Off
Versions: 1 2 3 4 5 6 7 8 9 10 11 12 13 14 15 16 17 18 19 20 21 22 23 24 25 26 27

000
FTUS41 KLWX 301120
TAFIAD
TAF
KIAD 301120Z 3012/0118 00000KT P6SM SCT080 BKN200
     FM301800 12005KT P6SM OVC050
     FM302200 08005KT 5SM SHRA OVC050
     FM010400 06008KT 6SM -SHRA OVC070
     FM010600 05010KT 6SM -SHRA OVC010
     FM011000 04013KT P6SM OVC015=

USA.gov is the U.S. government's official web portal to all federal, state and local government web resources and services.